< Typhoon 197703 1977 Season Typhoon 197705 >
Typhoon 197704 (THELMA)
General InformationTrack Information on Google MapsDetailed Wind Information || Disaster Info.ResourceGoogle EarthGE AnimationAtom FeedGeoJSON
Detalied Best Track (Time Zone = UTC)
Year Month Day Hour Lat. Long. Pressure (hPa) Wind (kt) Class Image Chart
1977 7 19 00 10.0 138.0 1008 0 2 -- Chart
1977 7 19 06 11.6 137.4 1006 0 2 -- Chart
1977 7 19 12 12.4 137.0 1006 0 2 -- Chart
1977 7 19 18 13.3 135.5 1006 0 2 -- Chart
1977 7 20 00 14.0 134.0 1006 0 2 -- Chart
1977 7 20 06 14.3 133.0 1004 0 2 -- Chart
1977 7 20 12 14.7 132.0 1004 0 2 -- Chart
1977 7 20 18 14.9 131.0 1004 0 2 -- Chart
1977 7 21 00 15.0 130.0 1004 0 2 -- Chart
1977 7 21 06 15.3 129.0 1000 0 2 -- Chart
1977 7 21 12 15.8 128.0 992 45 3 -- Chart
1977 7 21 18 16.0 127.5 990 45 3 -- Chart
1977 7 22 00 16.3 127.0 985 50 4 -- Chart
1977 7 22 06 16.7 126.2 985 50 4 -- Chart
1977 7 22 12 17.0 125.3 975 55 4 -- Chart
1977 7 22 18 17.2 124.5 970 65 5 -- Chart
1977 7 23 00 17.8 123.9 960 65 5 -- Chart
1977 7 23 06 18.3 123.0 950 70 5 -- Chart
1977 7 23 12 18.8 122.1 955 70 5 -- Chart
1977 7 23 18 19.2 121.2 960 70 5 -- Chart
1977 7 24 00 19.7 120.5 960 70 5 -- Chart
1977 7 24 06 20.1 119.9 960 70 5 -- Chart
1977 7 24 12 20.9 119.8 960 70 5 -- Chart
1977 7 24 18 21.7 119.8 960 70 5 -- Chart
1977 7 25 00 22.3 120.2 965 60 4 -- Chart
1977 7 25 06 24.5 120.0 980 50 4 -- Chart
1977 7 25 12 25.7 119.5 992 45 3 -- Chart
1977 7 25 18 26.7 119.3 996 0 2 -- Chart
1977 7 26 00 27.5 119.0 998 0 2 -- Chart
1977 7 26 06 28.0 118.0 998 0 2 -- Chart
1977 7 26 12 29.2 117.0 998 0 2 -- Chart
1977 7 26 18 30.0 116.2 998 0 2 -- Chart
1977 7 27 00 31.1 116.0 998 0 2 -- Chart
Japan Meteorological Agency Best Track Data | Correction Date : 1992-10-21
< Typhoon 197703 1977 Season Typhoon 197705 >

Help